CW8656 Weather Reports


time (UTC)temp
F
wind
direction
speed
knots
gust
knots
rain 1hr
in
rain 24hr
in
rain mn
in
humidity
%
barometer
mb
20221203065700 15 0 5.2 9.6 0.00 0.00 0.00 65 1011.7
20221203065201 15 0 3.5 6.1 0.00 0.00 0.00 63 1011.4
20221203064929 16 0 2.6 8.7 0.00 0.00 0.00 63 1011.8
20221203064158 15 0 2.6 8.7 0.00 0.00 0.00 65 1011.4
20221203063658 15 0 1.7 7.0 0.00 0.00 0.00 64 1011.4
20221203063154 15 0 1.7 6.1 0.00 0.00 0.00 64 1011.6
20221203062121 15 0 4.3 10.4 0.00 0.00 0.00 64 1011.3
20221203061610 15 0 3.5 10.4 0.00 0.00 0.00 64 1011.3
20221203061056 15 0 2.6 8.7 0.00 0.00 0.00 64 1011.2
20221203060536 15 0 2.6 7.8 0.00 0.00 0.00 66 1010.7
20221203060025 15 0 1.7 7.8 0.00 0.00 0.00 64 1010.8
20221203055514 16 141 0.9 6.1 0.00 0.00 0.00 66 1011.1
20221203054953 16 0 0.0 4.3 0.00 0.00 0.00 66 1010.8
20221203054444 16 136 0.9 4.3 0.00 0.00 0.00 64 1010.9
20221203053941 16 0 0.0 4.3 0.00 0.00 0.00 65 1010.9
20221203053440 16 0 0.0 1.7 0.00 0.00 0.00 64 1011.1
20221203052938 17 0 0.9 6.1 0.00 0.00 0.00 64 1010.9
20221203052434 17 0 1.7 6.1 0.00 0.00 0.00 64 1011.1
20221203051935 18 0 0.9 6.1 0.00 0.00 0.00 63 1011.4
20221203051400 18 0 1.7 8.7 0.00 0.00 0.00 62 1011.7
20221203050901 19 124 2.6 8.7 0.00 0.00 0.00 60 1011.9
20221203050346 21 0 4.3 9.6 0.00 0.00 0.00 58 1012.8
20221203045846 22 0 7.0 12.2 0.00 0.00 0.00 57 1012.9
20221203045611 22 0 7.8 13.9 0.00 0.00 0.00 54 1013.3
20221203044841 24 0 7.8 14.8 0.00 0.00 0.00 51 1013.9
20221203044340 25 0 7.8 14.8 0.00 0.00 0.00 47 1014.6
20221203043841 27 0 7.8 14.8 0.00 0.00 0.00 43 1015.4
20221203043340 26 0 7.8 14.8 0.00 0.00 0.00 40 1014.6
20221203042842 25 110 8.7 21.7 0.00 0.00 0.00 45 1014.7
20221203042338 27 0 9.6 21.7 0.00 0.00 0.00 42 1015.4
20221203041841 30 0 8.7 21.7 0.00 0.00 0.00 34 1016.8
20221203041611 31 0 8.7 25.2 0.00 0.00 0.00 33 1017.1
20221203040839 31 0 10.4 25.2 0.00 0.00 0.00 33 1017.1
20221203040338 31 0 12.2 23.5 0.00 0.00 0.00 34 1016.7
20221203035833 31 0 13.9 28.7 0.00 0.00 0.00 36 1015.9
20221203035555 31 0 16.5 28.7 0.00 0.00 0.00 36 1015.8
20221203034822 31 0 17.4 28.7 0.00 0.00 0.00 37 1015.6
20221203034552 30 0 18.2 30.4 0.00 0.00 0.00 37 1015.4
20221203033820 30 0 18.2 32.2 0.00 0.00 0.00 38 1015.3
20221203033318 30 0 18.2 32.2 0.00 0.00 0.00 39 1015.4
20221203032818 30 0 20.0 32.2 0.00 0.00 0.00 40 1014.9
20221203032318 30 0 21.7 37.4 0.00 0.00 0.00 40 1014.8
20221203032048 30 0 22.6 44.3 0.00 0.00 0.00 41 1014.7
20221203031316 30 0 21.7 44.3 0.00 0.00 0.00 42 1014.3
20221203030816 29 0 22.6 36.5 0.00 0.00 0.00 42 1014.3
20221203030316 29 0 22.6 38.2 0.00 0.00 0.00 43 1014.1
20221203025816 29 0 20.9 38.2 0.00 0.00 0.00 43 1013.9
20221203025547 29 0 20.9 34.8 0.00 0.00 0.00 43 1013.9
20221203024816 29 0 20.9 34.8 0.00 0.00 0.00 43 1013.6
20221203024310 28 0 22.6 40.8 0.00 0.00 0.00 44 1013.3
20221203023804 28 0 22.6 40.8 0.00 0.00 0.00 44 1013.3
20221203023302 28 0 22.6 44.3 0.00 0.00 0.00 44 1013.2
20221203022802 28 0 22.6 44.3 0.00 0.00 0.00 44 1012.8
20221203022300 28 0 21.7 37.4 0.00 0.00 0.00 46 1012.4
20221203021800 27 0 21.7 37.4 0.00 0.00 0.00 46 1012.3
20221203021300 27 0 22.6 35.6 0.00 0.00 0.00 46 1012.1
20221203020800 26 0 22.6 39.1 0.00 0.00 0.00 46 1011.7
20221203020304 26 0 20.9 39.1 0.00 0.00 0.00 47 1011.1
20221203015800 26 0 21.7 34.8 0.00 0.00 0.00 47 1011.1
20221203015300 25 0 22.6 34.8 0.00 0.00 0.00 46 1010.9
20221203014801 25 0 21.7 35.6 0.00 0.00 0.00 47 1010.4
20221203014250 25 0 20.9 38.2 0.00 0.00 0.00 47 1010.3
20221203013743 25 0 22.6 38.2 0.00 0.00 0.00 47 1010.4
20221203013243 25 0 21.7 35.6 0.00 0.00 0.00 47 1010.6
20221203012742 25 0 20.0 33.0 0.00 0.00 0.00 47 1010.2
20221203012242 24 0 20.0 33.9 0.00 0.00 0.00 48 1010.2
20221203011741 24 0 20.9 33.9 0.00 0.00 0.00 48 1009.8
20221203011239 24 0 20.9 35.6 0.00 0.00 0.00 48 1009.7
20221203010740 24 0 21.7 35.6 0.00 0.00 0.00 48 1009.6
20221203010236 24 0 22.6 34.8 0.00 0.00 0.00 47 1009.1
20221203005727 23 0 23.5 36.5 0.00 0.00 0.00 48 1009.1
20221203005217 23 0 21.7 36.5 0.00 0.00 0.00 49 1008.8
20221203004716 23 0 19.1 31.3 0.00 0.00 0.00 51 1008.6
20221203004158 22 0 20.0 32.2 0.00 0.00 0.00 51 1008.6
20221203003655 22 0 20.9 32.2 0.00 0.00 0.00 51 1008.3
20221203003145 23 0 20.9 33.9 0.00 0.00 0.00 51 1008.3
20221203002639 23 0 20.0 33.9 0.00 0.01 0.00 51 1008.2
20221203002137 23 0 20.9 32.2 0.00 0.01 0.00 51 1007.9
20221203001638 23 0 20.0 32.2 0.00 0.01 0.00 50 1008.3
20221203001138 23 0 18.2 28.7 0.00 0.01 0.00 51 1008.1
20221203000911 23 0 16.5 25.2 0.00 0.01 0.00 51 1008.1
20221203000137 23 0 16.5 25.2 0.00 0.01 0.00 52 1008.1
20221202235637 23 0 15.6 25.2 0.00 0.01 0.00 52 1008.1
20221202235139 23 0 13.9 21.7 0.00 0.01 0.00 53 1008.1
20221202234635 23 0 14.8 24.3 0.00 0.01 0.00 52 1008.2
20221202234135 23 0 14.8 27.8 0.00 0.01 0.00 51 1008.3
20221202233635 23 0 13.9 27.8 0.00 0.01 0.00 51 1008.1
20221202233136 24 0 13.0 22.6 0.00 0.01 0.00 52 1008.2
20221202232635 24 0 12.2 20.0 0.00 0.01 0.00 51 1008.1
20221202232133 24 0 13.0 26.1 0.00 0.01 0.00 51 1008.1
20221202231633 24 0 12.2 26.1 0.00 0.01 0.00 51 1007.9
20221202231133 24 0 11.3 22.6 0.00 0.01 0.00 51 1007.8
20221202230906 24 0 11.3 22.6 0.00 0.01 0.00 51 1007.9
20221202230403 24 0 11.3 21.7 0.00 0.01 0.00 51 1007.8
20221202225632 24 0 10.4 21.7 0.00 0.01 0.00 50 1007.7
20221202225133 25 0 11.3 20.9 0.00 0.01 0.00 50 1007.2
20221202224634 25 0 13.0 21.7 0.00 0.01 0.00 50 1007.1
20221202224133 25 0 13.9 27.8 0.00 0.01 0.00 49 1007.1
20221202223904 25 0 14.8 27.8 0.00 0.01 0.00 50 1007.1
20221202223133 25 0 18.2 28.7 0.00 0.01 0.00 49 1006.7
20221202222632 25 0 20.0 37.4 0.00 0.01 0.00 50 1006.7
20221202222127 25 0 20.0 37.4 0.00 0.01 0.00 50 1006.8
20221202221621 26 0 16.5 31.3 0.00 0.01 0.00 49 1006.3
20221202221112 26 0 13.9 27.8 0.00 0.01 0.00 50 1005.8
20221202220601 26 0 12.2 24.3 0.00 0.01 0.00 51 1006.2
20221202220329 26 18 9.6 21.7 0.00 0.01 0.00 51 1006.1
20221202215553 26 0 9.6 16.5 0.00 0.01 0.00 51 1005.9
20221202215048 26 0 9.6 15.6 0.00 0.01 0.00 52 1005.7
20221202214550 26 0 11.3 22.6 0.00 0.01 0.00 52 1005.6
20221202214320 26 0 11.3 22.6 0.00 0.01 0.00 52 1005.4
20221202213549 26 0 9.6 17.4 0.00 0.01 0.00 53 1005.4
20221202213049 27 0 9.6 16.5 0.00 0.01 0.00 51 1005.3
20221202212820 27 0 7.8 16.5 0.00 0.01 0.00 50 1005.2
20221202212049 27 0 9.6 22.6 0.00 0.01 0.00 51 1004.9
20221202211818 27 0 12.2 22.6 0.00 0.01 0.00 51 1004.6
20221202211047 27 0 12.2 19.1 0.00 0.01 0.00 50 1004.4
20221202210546 27 0 13.0 26.1 0.00 0.01 0.00 49 1004.2
20221202210047 27 0 12.2 26.1 0.00 0.01 0.00 49 1004.2
20221202205547 28 0 11.3 23.5 0.00 0.01 0.00 49 1004.2
20221202205311 28 0 13.0 23.5 0.00 0.01 0.00 49 1003.8
20221202204539 28 0 15.6 29.5 0.00 0.01 0.00 50 1003.8
20221202204040 28 0 15.6 29.5 0.00 0.01 0.00 48 1003.7
20221202203540 29 0 13.0 28.7 0.00 0.01 0.00 48 1003.8
20221202203037 29 0 12.2 26.9 0.00 0.01 0.00 49 1003.6
20221202202808 30 0 13.9 29.5 0.00 0.01 0.00 48 1003.3
20221202202036 30 0 13.9 29.5 0.00 0.01 0.00 47 1003.3
20221202201538 30 0 15.6 27.8 0.00 0.01 0.00 48 1003.4
20221202201032 30 0 14.8 27.8 0.00 0.01 0.00 48 1003.2
20221202200510 29 0 13.0 24.3 0.00 0.01 0.00 52 1003.1
20221202200001 29 0 12.2 20.9 0.00 0.01 0.00 57 1002.8
20221202195723 30 0 13.0 24.3 0.00 0.01 0.00 55 1002.9
20221202194946 30 0 12.2 22.6 0.00 0.01 0.00 53 1003.3
20221202194435 31 0 12.2 26.1 0.00 0.01 0.00 51 1003.7
20221202193934 32 0 11.3 26.1 0.00 0.01 0.00 49 1003.8
20221202193419 32 0 11.3 26.1 0.00 0.01 0.00 50 1003.4
20221202193145 32 0 10.4 26.1 0.00 0.01 0.00 51 1003.6
20221202192407 32 0 8.7 22.6 0.00 0.01 0.00 53 1002.9
20221202191855 32 0 8.7 17.4 0.00 0.01 0.00 58 1003.1
20221202191346 31 0 8.7 17.4 0.00 0.01 0.00 59 1002.9
20221202190841 32 0 9.6 16.5 0.00 0.01 0.00 59 1003.1
20221202190556 31 0 9.6 17.4 0.00 0.01 0.00 60 1002.3
20221202185820 31 0 11.3 18.2 0.00 0.01 0.00 65 1001.9
20221202185311 31 0 14.8 27.8 0.00 0.01 0.00 63 1001.8
20221202184758 32 0 17.4 27.8 0.00 0.01 0.00 57 1002.2
20221202184518 34 0 18.2 30.4 0.00 0.01 0.00 53 1002.4
20221202183745 34 0 16.5 30.4 0.00 0.01 0.00 51 1002.2
20221202183238 34 0 13.9 25.2 0.00 0.01 0.00 56 1002.4
20221202182739 35 336 13.0 20.0 0.00 0.01 0.00 57 1002.6
20221202182238 36 0 12.2 19.1 0.00 0.01 0.00 57 1002.6
20221202181738 37 337 9.6 18.2 0.00 0.01 0.00 56 1002.8
20221202181238 38 0 6.1 14.8 0.00 0.01 0.00 56 1003.6
20221202181008 38 0 5.2 10.4 0.00 0.01 0.00 55 1003.6
20221202180509 38 0 4.3 12.2 0.00 0.01 0.00 54 1003.4
20221202175737 39 0 5.2 12.2 0.00 0.01 0.00 54 1003.8
20221202175232 39 0 7.0 12.2 0.00 0.01 0.00 54 1003.4
20221202175002 39 332 5.2 12.2 0.00 0.01 0.00 56 1003.7
20221202174231 40 0 3.5 9.6 0.00 0.01 0.00 52 1003.8
20221202174003 40 19 5.2 12.2 0.00 0.01 0.00 52 1003.6
20221202173231 40 0 7.0 13.9 0.00 0.01 0.00 51 1003.4
20221202172712 40 335 7.8 15.6 0.00 0.01 0.00 50 1003.2
20221202172208 40 0 7.0 15.6 0.00 0.01 0.00 49 1003.3
20221202171707 41 0 8.7 21.7 0.00 0.01 0.00 48 1003.6
20221202171207 41 0 9.6 21.7 0.00 0.01 0.00 46 1003.7
20221202170938 42 0 8.7 20.9 0.00 0.01 0.00 43 1003.7
20221202170208 42 0 7.0 20.9 0.00 0.01 0.00 43 1003.2
20221202165704 42 0 7.8 23.5 0.00 0.01 0.00 45 1003.1
20221202165204 41 0 9.6 23.5 0.00 0.01 0.00 45 1002.7
20221202164701 40 0 7.0 16.5 0.00 0.01 0.00 50 1002.4
20221202164202 40 0 4.3 13.0 0.00 0.01 0.00 52 1002.4
20221202163702 40 0 5.2 13.9 0.00 0.01 0.00 56 1002.2
20221202163159 39 0 5.2 13.9 0.00 0.01 0.00 56 1001.4
20221202162700 39 0 6.1 15.6 0.00 0.01 0.00 57 1001.4
20221202162200 38 0 7.0 15.6 0.00 0.01 0.00 57 1001.2
20221202161659 38 0 6.1 14.8 0.00 0.02 0.00 57 1000.9
20221202161425 38 0 6.1 13.9 0.00 0.02 0.00 57 1000.9
20221202160647 38 0 7.8 17.4 0.00 0.02 0.00 56 1000.8
20221202160148 39 0 9.6 17.4 0.00 0.02 0.00 54 1000.9
20221202155648 39 0 8.7 16.5 0.00 0.02 0.00 53 1001.1
20221202155141 39 0 7.8 17.4 0.00 0.02 0.00 53 1001.1
20221202154139 39 0 4.3 16.5 0.00 0.02 0.00 53 1000.6
20221202153640 39 0 5.2 16.5 0.00 0.02 0.00 53 1000.6
20221202153139 39 0 4.3 13.0 0.00 0.02 0.00 53 1000.7
20221202152631 39 0 4.3 12.2 0.00 0.02 0.00 52 1000.3
20221202152119 39 0 4.3 12.2 0.00 0.02 0.00 52 1000.7
20221202151606 39 0 3.5 13.9 0.00 0.02 0.00 51 1000.6
20221202151317 40 0 2.6 13.9 0.00 0.03 0.00 51 1000.9
20221202150533 40 0 2.6 13.0 0.00 0.03 0.00 51 1000.7
20221202150032 40 0 4.3 14.8 0.00 0.03 0.00 50 1000.8
20221202145521 40 0 7.0 15.6 0.00 0.03 0.00 51 1000.7
20221202145013 40 0 7.8 16.5 0.00 0.03 0.00 50 1000.6
20221202144737 40 0 6.1 16.5 0.00 0.03 0.00 50 1000.6
20221202144005 40 0 4.3 13.9 0.00 0.03 0.00 50 1000.8
20221202143503 40 0 6.1 13.9 0.00 0.03 0.00 50 1000.9
20221202143235 40 0 7.0 18.2 0.00 0.03 0.00 49 1000.9
20221202142501 40 0 7.8 18.2 0.00 0.03 0.00 49 1000.7
20221202142001 40 0 7.8 15.6 0.00 0.03 0.00 49 1000.8
20221202141459 40 0 8.7 17.4 0.00 0.03 0.00 49 1000.8
20221202141230 40 0 7.8 17.4 0.00 0.03 0.00 48 1000.7
20221202140458 40 0 7.8 17.4 0.00 0.03 0.00 49 1000.6
20221202135958 40 0 8.7 17.4 0.00 0.03 0.00 49 1000.7
20221202135457 40 0 7.8 16.5 0.00 0.03 0.00 49 1000.8
20221202134958 40 0 9.6 21.7 0.00 0.03 0.00 49 1000.8
20221202134457 40 0 8.7 21.7 0.00 0.03 0.00 48 1000.7
20221202133957 41 0 9.6 25.2 0.00 0.03 0.00 48 1001.1
20221202133451 41 0 11.3 25.2 0.00 0.03 0.00 47 1001.1
20221202132944 41 0 8.7 19.1 0.00 0.03 0.00 46 1000.8
20221202132435 41 0 9.6 18.2 0.00 0.03 0.00 46 1001.1
20221202131926 42 0 9.6 18.2 0.00 0.03 0.00 45 1001.1
20221202131423 42 0 9.6 20.9 0.00 0.03 0.00 44 1001.3
20221202130914 42 0 12.2 27.8 0.00 0.03 0.00 44 1001.1
20221202130413 42 0 11.3 27.8 0.00 0.03 0.00 44 1001.2
20221202125913 42 0 10.4 24.3 0.00 0.03 0.00 44 1001.2
20221202125412 42 225 11.3 24.3 0.00 0.03 0.00 43 1001.2
20221202125147 42 0 12.2 24.3 0.00 0.03 0.00 43 1000.9
20221202124411 42 0 13.0 22.6 0.00 0.03 0.00 43 1000.9
20221202123409 43 0 11.3 22.6 0.00 0.03 0.00 43 1001.1
20221202123140 43 0 10.4 22.6 0.00 0.03 0.00 42 1001.2
20221202122407 43 0 10.4 21.7 0.00 0.03 0.00 42 1001.1
20221202122138 43 0 10.4 26.9 0.00 0.03 0.00 42 1001.3
20221202121407 43 0 9.6 26.9 0.00 0.03 0.00 41 1001.4
20221202120908 43 0 9.6 21.7 0.00 0.03 0.00 41 1001.3
20221202120406 43 0 10.4 21.7 0.00 0.03 0.00 41 1001.7
20221202120125 44 0 10.4 20.0 0.00 0.03 0.00 40 1001.7
20221202115353 43 0 10.4 20.9 0.00 0.03 0.00 40 1001.4
20221202114853 44 0 10.4 20.9 0.00 0.03 0.00 40 1001.6
20221202114624 44 0 10.4 25.2 0.00 0.03 0.00 39 1001.6
20221202113353 44 0 11.3 23.5 0.00 0.03 0.00 39 1001.7
20221202112352 43 0 12.2 26.1 0.00 0.03 0.00 39 1002.1
20221202112125 43 0 12.2 26.1 0.00 0.03 0.00 39 1001.7
20221202111352 43 0 12.2 22.6 0.00 0.03 0.00 39 1001.8
20221202110346 43 0 13.9 24.3 0.00 0.03 0.00 39 1002.1
20221202110117 44 0 13.0 24.3 0.00 0.03 0.00 38 1002.3
20221202105616 43 0 13.9 23.5 0.00 0.03 0.00 38 1002.1
20221202104845 43 0 13.9 24.3 0.00 0.03 0.00 38 1002.4
20221202104342 43 0 13.0 24.3 0.00 0.03 0.00 38 1002.4
20221202103843 43 257 13.9 31.3 0.00 0.03 0.00 38 1002.7
20221202103342 43 0 13.9 31.3 0.00 0.03 0.00 38 1002.7
20221202102844 43 0 13.0 23.5 0.00 0.03 0.00 38 1002.7
20221202102338 43 0 13.0 26.1 0.00 0.03 0.00 38 1002.4
20221202101816 44 0 13.9 26.9 0.00 0.03 0.00 37 1002.8
20221202101307 43 0 12.2 23.5 0.00 0.03 0.00 37 1002.7
20221202100756 43 0 13.0 28.7 0.00 0.03 0.00 38 1002.9
20221202100521 44 0 13.9 28.7 0.00 0.03 0.00 37 1003.1
20221202095740 44 298 13.0 22.6 0.00 0.03 0.00 37 1003.1
20221202095512 44 236 13.0 26.9 0.00 0.03 0.00 37 1003.2
20221202094724 44 265 14.8 27.8 0.00 0.03 0.00 36 1003.4
20221202094218 44 298 13.9 27.8 0.00 0.03 0.00 36 1003.4
20221202093714 44 232 14.8 28.7 0.00 0.03 0.00 36 1003.2
20221202093158 44 241 14.8 33.0 0.00 0.03 0.00 35 1003.7
20221202092652 44 255 13.9 33.0 0.00 0.03 0.00 36 1003.4
20221202092146 44 275 13.0 26.9 0.00 0.03 0.00 36 1003.4
20221202091630 44 0 14.8 26.9 0.00 0.03 0.00 37 1003.3
20221202091126 44 0 16.5 26.9 0.00 0.03 0.00 36 1003.6
20221202090619 44 0 17.4 28.7 0.00 0.03 0.00 36 1003.4
20221202090346 44 0 17.4 28.7 0.00 0.03 0.00 36 1003.4
20221202085616 44 258 16.5 26.9 0.00 0.03 0.00 37 1003.2
20221202085112 44 0 16.5 28.7 0.00 0.03 0.00 36 1003.3
20221202084612 44 0 16.5 28.7 0.00 0.03 0.00 36 1003.4
20221202083108 44 0 17.4 27.8 0.00 0.03 0.00 36 1003.2
20221202082609 44 0 17.4 33.0 0.00 0.03 0.00 36 1003.1
20221202082106 44 0 20.0 33.9 0.00 0.03 0.00 36 1003.2
20221202081606 44 0 20.0 33.9 0.00 0.03 0.00 36 1003.1
20221202081104 44 0 20.0 34.8 0.00 0.03 0.00 36 1002.8
20221202080604 44 0 20.0 34.8 0.00 0.03 0.00 36 1003.2
20221202075602 44 0 19.1 31.3 0.00 0.03 0.00 35 1003.1
20221202075102 44 0 19.1 31.3 0.00 0.03 0.00 36 1003.3
20221202074600 44 0 20.9 34.8 0.00 0.03 0.00 35 1003.4
20221202074101 44 0 21.7 34.8 0.00 0.03 0.00 35 1003.4
20221202073600 44 0 22.6 33.9 0.00 0.03 0.00 35 1003.7
20221202073058 44 0 21.7 35.6 0.00 0.03 0.00 34 1004.1
20221202072558 44 0 20.0 35.6 0.00 0.03 0.00 34 1004.2
20221202072057 44 0 19.1 35.6 0.00 0.03 0.00 34 1004.3
20221202071558 45 0 20.9 33.0 0.00 0.03 0.00 35 1004.8
20221202070559 45 0 19.1 36.5 0.00 0.03 0.00 34 1005.3
20221202070058 45 0 19.1 34.8 0.00 0.03 0.00 34 1005.2